sensor_id;sensor_type;location;lat;lon;timestamp;pressure;altitude;pressure_sealevel;temperature;humidity
35121;BME280;21297;52.008;4.576;2024-03-25T00:02:27;44942.31;;;-143.47;79.54
35121;BME280;21297;52.008;4.576;2024-03-25T00:05:12;44960.00;;;-143.47;79.22
35121;BME280;21297;52.008;4.576;2024-03-25T00:08:00;44944.28;;;-143.47;80.47
35121;BME280;21297;52.008;4.576;2024-03-25T00:10:46;44954.09;;;-143.47;81.58
35121;BME280;21297;52.008;4.576;2024-03-25T00:13:31;44963.94;;;-143.47;82.83
35121;BME280;21297;52.008;4.576;2024-03-25T00:16:17;44991.44;;;-143.47;83.49
35121;BME280;21297;52.008;4.576;2024-03-25T00:19:02;45003.22;;;-143.47;83.30
35121;BME280;21297;52.008;4.576;2024-03-25T00:21:48;44967.84;;;-143.47;83.59
35121;BME280;21297;52.008;4.576;2024-03-25T00:24:34;44987.50;;;-143.47;84.05
35121;BME280;21297;52.008;4.576;2024-03-25T00:27:19;44973.75;;;-143.47;85.08
35121;BME280;21297;52.008;4.576;2024-03-25T00:30:05;44995.34;;;-143.47;84.24
35121;BME280;21297;52.008;4.576;2024-03-25T00:32:51;44971.78;;;-143.47;82.55
35121;BME280;21297;52.008;4.576;2024-03-25T00:35:36;44946.25;;;-143.47;81.74
35121;BME280;21297;52.008;4.576;2024-03-25T00:38:22;44965.88;;;-143.47;81.68
35121;BME280;21297;52.008;4.576;2024-03-25T00:41:08;44956.06;;;-143.47;81.30
35121;BME280;21297;52.008;4.576;2024-03-25T00:43:53;44977.69;;;-143.47;81.28
35121;BME280;21297;52.008;4.576;2024-03-25T00:46:39;44936.41;;;-143.47;81.61
35121;BME280;21297;52.008;4.576;2024-03-25T00:49:26;44971.78;;;-143.47;82.61
35121;BME280;21297;52.008;4.576;2024-03-25T00:52:12;44963.94;;;-143.47;82.73
35121;BME280;21297;52.008;4.576;2024-03-25T00:54:57;44989.47;;;-143.47;82.78
35121;BME280;21297;52.008;4.576;2024-03-25T00:57:43;44981.59;;;-143.47;83.10
35121;BME280;21297;52.008;4.576;2024-03-25T01:00:29;44991.44;;;-143.47;82.92
35121;BME280;21297;52.008;4.576;2024-03-25T01:03:14;44987.50;;;-143.47;83.27
35121;BME280;21297;52.008;4.576;2024-03-25T01:06:00;44993.38;;;-143.47;83.53
35121;BME280;21297;52.008;4.576;2024-03-25T01:08:45;44993.38;;;-143.47;83.75
35121;BME280;21297;52.008;4.576;2024-03-25T01:11:31;44979.63;;;-143.47;84.38
35121;BME280;21297;52.008;4.576;2024-03-25T01:14:16;44983.56;;;-143.47;85.26
35121;BME280;21297;52.008;4.576;2024-03-25T01:17:02;44948.22;;;-143.47;85.96
35121;BME280;21297;52.008;4.576;2024-03-25T01:19:48;44989.47;;;-143.47;86.33
35121;BME280;21297;52.008;4.576;2024-03-25T01:22:34;44991.44;;;-143.47;86.95
35121;BME280;21297;52.008;4.576;2024-03-25T01:25:19;45005.19;;;-143.47;86.99
35121;BME280;21297;52.008;4.576;2024-03-25T01:28:05;44973.75;;;-143.47;86.92
35121;BME280;21297;52.008;4.576;2024-03-25T01:30:50;44971.78;;;-143.47;86.00
35121;BME280;21297;52.008;4.576;2024-03-25T01:33:36;44965.88;;;-143.47;84.97
35121;BME280;21297;52.008;4.576;2024-03-25T01:36:22;44950.16;;;-143.47;84.33
35121;BME280;21297;52.008;4.576;2024-03-25T01:39:08;44981.59;;;-143.47;83.31
35121;BME280;21297;52.008;4.576;2024-03-25T01:41:53;44975.72;;;-143.47;82.40
35121;BME280;21297;52.008;4.576;2024-03-25T01:44:39;44961.97;;;-143.47;81.97
35121;BME280;21297;52.008;4.576;2024-03-25T01:47:25;44969.81;;;-143.47;82.04
35121;BME280;21297;52.008;4.576;2024-03-25T01:50:10;44997.31;;;-143.47;81.69
35121;BME280;21297;52.008;4.576;2024-03-25T01:52:56;44960.00;;;-143.47;81.89
35121;BME280;21297;52.008;4.576;2024-03-25T01:55:42;44971.78;;;-143.47;82.36
35121;BME280;21297;52.008;4.576;2024-03-25T01:58:27;44983.56;;;-143.47;82.89
35121;BME280;21297;52.008;4.576;2024-03-25T02:01:13;44936.41;;;-143.47;82.65
35121;BME280;21297;52.008;4.576;2024-03-25T02:04:00;45001.25;;;-143.47;82.87
35121;BME280;21297;52.008;4.576;2024-03-25T02:06:46;44969.81;;;-143.47;83.64
35121;BME280;21297;52.008;4.576;2024-03-25T02:09:32;44960.00;;;-143.47;84.54
35121;BME280;21297;52.008;4.576;2024-03-25T02:12:17;44971.78;;;-143.47;85.50
35121;BME280;21297;52.008;4.576;2024-03-25T02:15:05;44991.44;;;-143.47;85.13
35121;BME280;21297;52.008;4.576;2024-03-25T02:17:51;44985.53;;;-143.47;85.19
35121;BME280;21297;52.008;4.576;2024-03-25T02:20:37;44979.63;;;-143.47;85.93
35121;BME280;21297;52.008;4.576;2024-03-25T02:23:22;44948.22;;;-143.47;85.57
35121;BME280;21297;52.008;4.576;2024-03-25T02:26:08;44993.38;;;-143.47;85.88
35121;BME280;21297;52.008;4.576;2024-03-25T02:28:53;44985.53;;;-143.47;85.84
35121;BME280;21297;52.008;4.576;2024-03-25T02:31:39;44960.00;;;-143.47;84.76
35121;BME280;21297;52.008;4.576;2024-03-25T02:34:25;44954.09;;;-143.47;83.82
35121;BME280;21297;52.008;4.576;2024-03-25T02:37:10;44975.72;;;-143.47;83.46
35121;BME280;21297;52.008;4.576;2024-03-25T02:39:57;44975.72;;;-143.47;83.56
35121;BME280;21297;52.008;4.576;2024-03-25T02:42:43;44960.00;;;-143.47;83.54
35121;BME280;21297;52.008;4.576;2024-03-25T02:45:29;44936.41;;;-143.47;83.78
35121;BME280;21297;52.008;4.576;2024-03-25T02:48:14;44979.63;;;-143.47;83.88
35121;BME280;21297;52.008;4.576;2024-03-25T02:51:00;44950.16;;;-143.47;84.16
35121;BME280;21297;52.008;4.576;2024-03-25T02:53:45;44960.00;;;-143.47;83.13
35121;BME280;21297;52.008;4.576;2024-03-25T02:56:31;44995.34;;;-143.47;83.04
35121;BME280;21297;52.008;4.576;2024-03-25T02:59:17;44963.94;;;-143.47;82.55
35121;BME280;21297;52.008;4.576;2024-03-25T03:02:02;44971.78;;;-143.47;82.84
35121;BME280;21297;52.008;4.576;2024-03-25T03:04:48;44952.13;;;-143.47;82.94
35121;BME280;21297;52.008;4.576;2024-03-25T03:07:33;45003.22;;;-143.47;82.94
35121;BME280;21297;52.008;4.576;2024-03-25T03:10:19;44963.94;;;-143.47;82.90
35121;BME280;21297;52.008;4.576;2024-03-25T03:13:04;44960.00;;;-143.47;82.71
35121;BME280;21297;52.008;4.576;2024-03-25T03:15:50;44946.25;;;-143.47;82.36
35121;BME280;21297;52.008;4.576;2024-03-25T03:18:35;44967.84;;;-143.47;82.35
35121;BME280;21297;52.008;4.576;2024-03-25T03:21:21;44965.88;;;-143.47;82.27
35121;BME280;21297;52.008;4.576;2024-03-25T03:24:06;44965.88;;;-143.47;81.88
35121;BME280;21297;52.008;4.576;2024-03-25T03:26:53;44950.16;;;-143.47;82.10
35121;BME280;21297;52.008;4.576;2024-03-25T03:29:38;44963.94;;;-143.47;81.89
35121;BME280;21297;52.008;4.576;2024-03-25T03:32:24;45001.25;;;-143.47;82.75
35121;BME280;21297;52.008;4.576;2024-03-25T03:35:10;44981.59;;;-143.47;83.30
35121;BME280;21297;52.008;4.576;2024-03-25T03:37:55;44977.69;;;-143.47;83.12
35121;BME280;21297;52.008;4.576;2024-03-25T03:40:41;44973.75;;;-143.47;83.62
35121;BME280;21297;52.008;4.576;2024-03-25T03:43:26;45003.22;;;-143.47;84.38
35121;BME280;21297;52.008;4.576;2024-03-25T03:46:12;44993.38;;;-143.47;84.99
35121;BME280;21297;52.008;4.576;2024-03-25T03:48:57;44987.50;;;-143.47;85.29
35121;BME280;21297;52.008;4.576;2024-03-25T03:51:43;44997.31;;;-143.47;86.81
35121;BME280;21297;52.008;4.576;2024-03-25T03:54:28;45026.78;;;-143.47;88.19
35121;BME280;21297;52.008;4.576;2024-03-25T03:57:14;44995.34;;;-143.47;88.67
35121;BME280;21297;52.008;4.576;2024-03-25T04:00:00;45038.56;;;-143.47;89.44
35121;BME280;21297;52.008;4.576;2024-03-25T04:02:46;45032.69;;;-143.47;89.76
35121;BME280;21297;52.008;4.576;2024-03-25T04:05:31;45038.56;;;-143.47;90.66
35121;BME280;21297;52.008;4.576;2024-03-25T04:08:17;45011.06;;;-143.47;91.40
35121;BME280;21297;52.008;4.576;2024-03-25T04:11:02;45040.53;;;-143.47;91.24
35121;BME280;21297;52.008;4.576;2024-03-25T04:13:48;45066.06;;;-143.47;93.00
35121;BME280;21297;52.008;4.576;2024-03-25T04:16:34;45111.25;;;-143.47;95.81
35121;BME280;21297;52.008;4.576;2024-03-25T04:19:23;45105.38;;;-143.47;97.24
35121;BME280;21297;52.008;4.576;2024-03-25T04:22:08;45107.34;;;-143.47;97.59
35121;BME280;21297;52.008;4.576;2024-03-25T04:24:54;45046.44;;;-143.47;94.98
35121;BME280;21297;52.008;4.576;2024-03-25T04:27:40;45066.06;;;-143.47;94.58
35121;BME280;21297;52.008;4.576;2024-03-25T04:30:26;45081.78;;;-143.47;95.20
35121;BME280;21297;52.008;4.576;2024-03-25T04:33:11;45101.44;;;-143.47;95.76
35121;BME280;21297;52.008;4.576;2024-03-25T04:35:57;45103.41;;;-143.47;98.17
35121;BME280;21297;52.008;4.576;2024-03-25T04:38:43;45134.84;;;-143.47;98.22
35121;BME280;21297;52.008;4.576;2024-03-25T04:41:28;45136.81;;;-143.47;98.53
35121;BME280;21297;52.008;4.576;2024-03-25T04:44:14;45144.66;;;-143.47;100.00
35121;BME280;21297;52.008;4.576;2024-03-25T04:47:00;45136.81;;;-143.47;100.00
35121;BME280;21297;52.008;4.576;2024-03-25T04:49:45;45172.16;;;-143.47;100.00
35121;BME280;21297;52.008;4.576;2024-03-25T04:52:31;45244.84;;;-143.47;100.00
35121;BME280;21297;52.008;4.576;2024-03-25T04:55:16;45240.91;;;-143.47;100.00
35121;BME280;21297;52.008;4.576;2024-03-25T04:58:02;45311.66;;;-143.47;100.00
35121;BME280;21297;52.008;4.576;2024-03-25T05:00:48;45333.25;;;-143.47;100.00
35121;BME280;21297;52.008;4.576;2024-03-25T05:03:33;45350.94;;;-143.47;100.00
35121;BME280;21297;52.008;4.576;2024-03-25T05:06:19;45354.88;;;-143.47;100.00
35121;BME280;21297;52.008;4.576;2024-03-25T05:09:04;45352.91;;;-143.47;100.00
35121;BME280;21297;52.008;4.576;2024-03-25T05:11:51;45282.19;;;-143.47;100.00
35121;BME280;21297;52.008;4.576;2024-03-25T05:14:37;45286.09;;;-143.47;100.00
35121;BME280;21297;52.008;4.576;2024-03-25T05:17:22;45380.41;;;-143.47;100.00
35121;BME280;21297;52.008;4.576;2024-03-25T05:20:08;45317.53;;;-143.47;100.00
35121;BME280;21297;52.008;4.576;2024-03-25T05:22:54;45331.28;;;-143.47;100.00
35121;BME280;21297;52.008;4.576;2024-03-25T05:25:40;45278.25;;;-143.47;100.00
35121;BME280;21297;52.008;4.576;2024-03-25T05:28:25;45282.19;;;-143.47;100.00
35121;BME280;21297;52.008;4.576;2024-03-25T05:31:11;45227.16;;;-143.47;100.00
35121;BME280;21297;52.008;4.576;2024-03-25T05:33:56;45227.16;;;-143.47;100.00
35121;BME280;21297;52.008;4.576;2024-03-25T05:36:42;45156.44;;;-143.47;100.00
35121;BME280;21297;52.008;4.576;2024-03-25T05:39:28;45150.56;;;-143.47;100.00
35121;BME280;21297;52.008;4.576;2024-03-25T05:42:15;45168.22;;;-143.47;100.00
35121;BME280;21297;52.008;4.576;2024-03-25T05:45:01;45160.38;;;-143.47;100.00
35121;BME280;21297;52.008;4.576;2024-03-25T05:47:46;45156.44;;;-143.47;100.00
35121;BME280;21297;52.008;4.576;2024-03-25T05:50:32;45156.44;;;-143.47;100.00
35121;BME280;21297;52.008;4.576;2024-03-25T05:53:17;45148.59;;;-143.47;100.00
35121;BME280;21297;52.008;4.576;2024-03-25T05:56:03;45140.72;;;-143.47;100.00
35121;BME280;21297;52.008;4.576;2024-03-25T05:58:49;45156.44;;;-143.47;100.00
35121;BME280;21297;52.008;4.576;2024-03-25T06:01:34;45152.50;;;-143.47;100.00
35121;BME280;21297;52.008;4.576;2024-03-25T06:04:22;45172.16;;;-143.47;100.00
35121;BME280;21297;52.008;4.576;2024-03-25T06:07:08;45262.53;;;-143.47;100.00
35121;BME280;21297;52.008;4.576;2024-03-25T06:09:53;45350.94;;;-143.47;100.00
35121;BME280;21297;52.008;4.576;2024-03-25T06:12:39;45352.91;;;-143.47;100.00
35121;BME280;21297;52.008;4.576;2024-03-25T06:15:24;45354.88;;;-143.47;100.00
35121;BME280;21297;52.008;4.576;2024-03-25T06:18:10;45425.59;;;-143.47;100.00
35121;BME280;21297;52.008;4.576;2024-03-25T06:20:56;45415.78;;;-143.47;100.00
35121;BME280;21297;52.008;4.576;2024-03-25T06:23:41;45415.78;;;-143.47;100.00
35121;BME280;21297;52.008;4.576;2024-03-25T06:26:27;45462.94;;;-143.47;100.00
35121;BME280;21297;52.008;4.576;2024-03-25T06:29:12;45435.41;;;-143.47;100.00
35121;BME280;21297;52.008;4.576;2024-03-25T06:31:58;45423.63;;;-143.47;100.00
35121;BME280;21297;52.008;4.576;2024-03-25T06:35:02;45421.66;;;-143.47;100.00
35121;BME280;21297;52.008;4.576;2024-03-25T06:37:48;45421.66;;;-143.47;100.00
35121;BME280;21297;52.008;4.576;2024-03-25T06:40:33;45431.50;;;-143.47;100.00
35121;BME280;21297;52.008;4.576;2024-03-25T06:43:19;45392.19;;;-143.47;100.00
35121;BME280;21297;52.008;4.576;2024-03-25T06:46:07;45403.97;;;-143.47;100.00
35121;BME280;21297;52.008;4.576;2024-03-25T06:48:53;45421.66;;;-143.47;100.00
35121;BME280;21297;52.008;4.576;2024-03-25T06:51:38;45441.31;;;-143.47;100.00
35121;BME280;21297;52.008;4.576;2024-03-25T06:54:24;45431.50;;;-143.47;100.00
35121;BME280;21297;52.008;4.576;2024-03-25T06:57:09;45423.63;;;-143.47;100.00
35121;BME280;21297;52.008;4.576;2024-03-25T06:59:55;45350.94;;;-143.47;100.00
35121;BME280;21297;52.008;4.576;2024-03-25T07:02:43;45386.31;;;-143.47;100.00
35121;BME280;21297;52.008;4.576;2024-03-25T07:05:28;45360.75;;;-143.47;100.00
35121;BME280;21297;52.008;4.576;2024-03-25T07:08:14;45345.03;;;-143.47;100.00
35121;BME280;21297;52.008;4.576;2024-03-25T07:11:00;45347.00;;;-143.47;100.00
35121;BME280;21297;52.008;4.576;2024-03-25T07:13:46;45368.63;;;-143.47;100.00
35121;BME280;21297;52.008;4.576;2024-03-25T07:16:31;45274.31;;;-143.47;100.00
35121;BME280;21297;52.008;4.576;2024-03-25T07:19:17;45201.63;;;-143.47;100.00
35121;BME280;21297;52.008;4.576;2024-03-25T07:22:03;45134.84;;;-143.47;100.00
35121;BME280;21297;52.008;4.576;2024-03-25T07:24:48;45125.00;;;-143.47;100.00
35121;BME280;21297;52.008;4.576;2024-03-25T07:27:34;45044.47;;;-143.47;94.44
35121;BME280;21297;52.008;4.576;2024-03-25T07:30:19;45066.06;;;-143.47;97.61
35121;BME280;21297;52.008;4.576;2024-03-25T07:33:07;45056.25;;;-143.47;96.15
35121;BME280;21297;52.008;4.576;2024-03-25T07:35:52;44942.31;;;-143.47;89.80
35121;BME280;21297;52.008;4.576;2024-03-25T07:38:38;44944.28;;;-143.47;89.14
35121;BME280;21297;52.008;4.576;2024-03-25T07:41:24;44922.66;;;-143.47;81.92
35121;BME280;21297;52.008;4.576;2024-03-25T07:44:10;44924.63;;;-143.47;85.91
35121;BME280;21297;52.008;4.576;2024-03-25T07:46:55;44920.72;;;-143.47;81.09
35121;BME280;21297;52.008;4.576;2024-03-25T07:49:41;44910.88;;;-143.47;80.01
35121;BME280;21297;52.008;4.576;2024-03-25T07:52:26;44908.91;;;-143.47;77.63
35121;BME280;21297;52.008;4.576;2024-03-25T07:55:12;44871.59;;;-143.47;74.43
35121;BME280;21297;52.008;4.576;2024-03-25T07:57:58;44873.56;;;-143.47;73.93
35121;BME280;21297;52.008;4.576;2024-03-25T08:00:43;44897.13;;;-143.47;73.81
35121;BME280;21297;52.008;4.576;2024-03-25T08:03:29;44873.56;;;-143.47;73.97
35121;BME280;21297;52.008;4.576;2024-03-25T08:06:14;44889.28;;;-143.47;73.79
35121;BME280;21297;52.008;4.576;2024-03-25T08:09:00;44879.47;;;-143.47;70.98
35121;BME280;21297;52.008;4.576;2024-03-25T08:11:46;44877.50;;;-143.47;71.06
35121;BME280;21297;52.008;4.576;2024-03-25T08:14:31;44912.84;;;-143.47;71.26
35121;BME280;21297;52.008;4.576;2024-03-25T08:17:17;44893.22;;;-143.47;70.60
35121;BME280;21297;52.008;4.576;2024-03-25T08:20:03;44848.03;;;-143.47;69.96
35121;BME280;21297;52.008;4.576;2024-03-25T08:22:49;44889.28;;;-143.47;68.96
35121;BME280;21297;52.008;4.576;2024-03-25T08:25:34;44855.88;;;-143.47;68.02
35121;BME280;21297;52.008;4.576;2024-03-25T08:28:20;44865.69;;;-143.47;66.94
35121;BME280;21297;52.008;4.576;2024-03-25T08:31:05;44842.13;;;-143.47;65.65
35121;BME280;21297;52.008;4.576;2024-03-25T08:33:51;44861.78;;;-143.47;64.82
35121;BME280;21297;52.008;4.576;2024-03-25T08:36:36;44873.56;;;-143.47;67.96
35121;BME280;21297;52.008;4.576;2024-03-25T08:39:22;44850.00;;;-143.47;67.17
35121;BME280;21297;52.008;4.576;2024-03-25T08:42:08;44861.78;;;-143.47;66.75
35121;BME280;21297;52.008;4.576;2024-03-25T08:44:53;44840.16;;;-143.47;65.56
35121;BME280;21297;52.008;4.576;2024-03-25T08:47:39;44851.94;;;-143.47;62.90
35121;BME280;21297;52.008;4.576;2024-03-25T08:50:26;44851.94;;;-143.47;60.07
35121;BME280;21297;52.008;4.576;2024-03-25T08:53:11;44857.84;;;-143.47;60.54
35121;BME280;21297;52.008;4.576;2024-03-25T08:55:57;44855.88;;;-143.47;61.98
35121;BME280;21297;52.008;4.576;2024-03-25T08:58:42;44861.78;;;-143.47;60.06
35121;BME280;21297;52.008;4.576;2024-03-25T09:01:28;44844.09;;;-143.47;60.09
35121;BME280;21297;52.008;4.576;2024-03-25T09:04:14;44846.06;;;-143.47;59.21
35121;BME280;21297;52.008;4.576;2024-03-25T09:06:59;44836.25;;;-143.47;59.82
35121;BME280;21297;52.008;4.576;2024-03-25T09:09:45;44826.41;;;-143.47;60.66
35121;BME280;21297;52.008;4.576;2024-03-25T09:12:49;44806.78;;;-143.47;58.08
35121;BME280;21297;52.008;4.576;2024-03-25T09:15:34;44830.34;;;-143.47;58.41
35121;BME280;21297;52.008;4.576;2024-03-25T09:18:20;44818.56;;;-143.47;57.73
35121;BME280;21297;52.008;4.576;2024-03-25T09:21:06;44844.09;;;-143.47;56.53
35121;BME280;21297;52.008;4.576;2024-03-25T09:23:51;44796.94;;;-143.47;55.82
35121;BME280;21297;52.008;4.576;2024-03-25T09:26:37;44824.44;;;-143.47;54.81
35121;BME280;21297;52.008;4.576;2024-03-25T09:29:22;44795.00;;;-143.47;56.14
35121;BME280;21297;52.008;4.576;2024-03-25T09:32:08;44824.44;;;-143.47;54.89
35121;BME280;21297;52.008;4.576;2024-03-25T09:34:54;44773.38;;;-143.47;54.20
35121;BME280;21297;52.008;4.576;2024-03-25T09:37:39;44806.78;;;-143.47;54.92
35121;BME280;21297;52.008;4.576;2024-03-25T09:40:25;44828.38;;;-143.47;56.29
35121;BME280;21297;52.008;4.576;2024-03-25T09:43:22;44818.56;;;-143.47;57.34
35121;BME280;21297;52.008;4.576;2024-03-25T09:46:09;44800.88;;;-143.47;56.68
35121;BME280;21297;52.008;4.576;2024-03-25T09:48:55;44795.00;;;-143.47;59.23
35121;BME280;21297;52.008;4.576;2024-03-25T09:51:40;44802.84;;;-143.47;57.86
35121;BME280;21297;52.008;4.576;2024-03-25T09:54:26;44832.31;;;-143.47;57.84
35121;BME280;21297;52.008;4.576;2024-03-25T09:57:12;44832.31;;;-143.47;59.73
35121;BME280;21297;52.008;4.576;2024-03-25T09:59:57;44842.13;;;-143.47;58.00
35121;BME280;21297;52.008;4.576;2024-03-25T10:02:43;44824.44;;;-143.47;60.19
35121;BME280;21297;52.008;4.576;2024-03-25T10:05:29;44810.69;;;-143.47;61.06
35121;BME280;21297;52.008;4.576;2024-03-25T10:08:19;44814.63;;;-143.47;60.75
35121;BME280;21297;52.008;4.576;2024-03-25T10:11:05;44838.19;;;-143.47;61.73
35121;BME280;21297;52.008;4.576;2024-03-25T10:13:50;44814.63;;;-143.47;60.34
35121;BME280;21297;52.008;4.576;2024-03-25T10:16:36;44806.78;;;-143.47;59.49
35121;BME280;21297;52.008;4.576;2024-03-25T10:19:21;44810.69;;;-143.47;56.55
35121;BME280;21297;52.008;4.576;2024-03-25T10:22:07;44830.34;;;-143.47;58.55
35121;BME280;21297;52.008;4.576;2024-03-25T10:24:53;44806.78;;;-143.47;58.61
35121;BME280;21297;52.008;4.576;2024-03-25T10:27:39;44808.75;;;-143.47;55.62
35121;BME280;21297;52.008;4.576;2024-03-25T10:30:24;44802.84;;;-143.47;52.90
35121;BME280;21297;52.008;4.576;2024-03-25T10:33:10;44810.69;;;-143.47;54.96
35121;BME280;21297;52.008;4.576;2024-03-25T10:35:55;44814.63;;;-143.47;53.22
35121;BME280;21297;52.008;4.576;2024-03-25T10:38:43;44826.41;;;-143.47;55.01
35121;BME280;21297;52.008;4.576;2024-03-25T10:41:30;44787.13;;;-143.47;54.62
35121;BME280;21297;52.008;4.576;2024-03-25T10:44:17;44804.81;;;-143.47;53.67
35121;BME280;21297;52.008;4.576;2024-03-25T10:47:03;44802.84;;;-143.47;52.41
35121;BME280;21297;52.008;4.576;2024-03-25T10:49:57;44812.66;;;-143.47;53.63
35121;BME280;21297;52.008;4.576;2024-03-25T10:52:43;44800.88;;;-143.47;53.24
35121;BME280;21297;52.008;4.576;2024-03-25T10:55:29;44800.88;;;-143.47;51.21
35121;BME280;21297;52.008;4.576;2024-03-25T10:58:15;44798.91;;;-143.47;54.26
35121;BME280;21297;52.008;4.576;2024-03-25T11:01:01;44798.91;;;-143.47;52.81
35121;BME280;21297;52.008;4.576;2024-03-25T11:03:47;44783.19;;;-143.47;50.42
35121;BME280;21297;52.008;4.576;2024-03-25T11:06:33;44802.84;;;-143.47;50.62
35121;BME280;21297;52.008;4.576;2024-03-25T11:09:22;44775.34;;;-143.47;49.99
35121;BME280;21297;52.008;4.576;2024-03-25T11:12:11;44798.91;;;-143.47;47.97
35121;BME280;21297;52.008;4.576;2024-03-25T11:14:57;44781.22;;;-143.47;48.82
35121;BME280;21297;52.008;4.576;2024-03-25T11:17:49;44763.56;;;-143.47;48.77
35121;BME280;21297;52.008;4.576;2024-03-25T11:20:34;44791.06;;;-143.47;48.59
35121;BME280;21297;52.008;4.576;2024-03-25T11:23:20;44755.69;;;-143.47;46.81
35121;BME280;21297;52.008;4.576;2024-03-25T11:26:16;44787.13;;;-143.47;49.71
35121;BME280;21297;52.008;4.576;2024-03-25T11:29:01;44791.06;;;-143.47;47.23
35121;BME280;21297;52.008;4.576;2024-03-25T11:31:48;44763.56;;;-143.47;47.04
35121;BME280;21297;52.008;4.576;2024-03-25T11:34:35;44765.53;;;-143.47;46.61
35121;BME280;21297;52.008;4.576;2024-03-25T11:37:20;44767.47;;;-143.47;46.53
35121;BME280;21297;52.008;4.576;2024-03-25T11:40:07;44767.47;;;-143.47;43.82
35121;BME280;21297;52.008;4.576;2024-03-25T11:42:54;44767.47;;;-143.47;42.89
35121;BME280;21297;52.008;4.576;2024-03-25T11:45:39;44783.19;;;-143.47;42.42
35121;BME280;21297;52.008;4.576;2024-03-25T11:48:25;44767.47;;;-143.47;40.57
35121;BME280;21297;52.008;4.576;2024-03-25T11:51:12;44769.44;;;-143.47;41.94
35121;BME280;21297;52.008;4.576;2024-03-25T11:53:58;44798.91;;;-143.47;42.14
35121;BME280;21297;52.008;4.576;2024-03-25T11:56:44;44757.66;;;-143.47;43.22
35121;BME280;21297;52.008;4.576;2024-03-25T11:59:30;44783.19;;;-143.47;42.75
35121;BME280;21297;52.008;4.576;2024-03-25T12:02:16;44775.34;;;-143.47;40.76
35121;BME280;21297;52.008;4.576;2024-03-25T12:05:02;44781.22;;;-143.47;40.51
35121;BME280;21297;52.008;4.576;2024-03-25T12:07:47;44755.69;;;-143.47;42.57
35121;BME280;21297;52.008;4.576;2024-03-25T12:10:35;44743.91;;;-143.47;41.85
35121;BME280;21297;52.008;4.576;2024-03-25T12:13:39;44779.28;;;-143.47;40.88
35121;BME280;21297;52.008;4.576;2024-03-25T12:16:28;44759.63;;;-143.47;40.46
35121;BME280;21297;52.008;4.576;2024-03-25T12:19:15;44747.84;;;-143.47;42.06
35121;BME280;21297;52.008;4.576;2024-03-25T12:22:00;44763.56;;;-143.47;42.70
35121;BME280;21297;52.008;4.576;2024-03-25T12:24:48;44779.28;;;-143.47;40.21
35121;BME280;21297;52.008;4.576;2024-03-25T12:27:35;44745.88;;;-143.47;39.18
35121;BME280;21297;52.008;4.576;2024-03-25T12:30:21;44747.84;;;-143.47;42.28
35121;BME280;21297;52.008;4.576;2024-03-25T12:33:06;44747.84;;;-143.47;40.29
35121;BME280;21297;52.008;4.576;2024-03-25T12:35:52;44761.59;;;-143.47;40.35
35121;BME280;21297;52.008;4.576;2024-03-25T12:38:38;44767.47;;;-143.47;42.23
35121;BME280;21297;52.008;4.576;2024-03-25T12:41:23;44763.56;;;-143.47;42.36
35121;BME280;21297;52.008;4.576;2024-03-25T12:44:11;44736.06;;;-143.47;42.84
35121;BME280;21297;52.008;4.576;2024-03-25T12:46:57;44739.97;;;-143.47;44.14
35121;BME280;21297;52.008;4.576;2024-03-25T12:49:44;44763.56;;;-143.47;44.53
35121;BME280;21297;52.008;4.576;2024-03-25T12:52:29;44753.72;;;-143.47;42.59
35121;BME280;21297;52.008;4.576;2024-03-25T12:55:15;44759.63;;;-143.47;41.84
35121;BME280;21297;52.008;4.576;2024-03-25T12:58:00;44732.13;;;-143.47;42.05
35121;BME280;21297;52.008;4.576;2024-03-25T13:00:47;44755.69;;;-143.47;42.69
35121;BME280;21297;52.008;4.576;2024-03-25T13:03:33;44757.66;;;-143.47;43.37
35121;BME280;21297;52.008;4.576;2024-03-25T13:06:18;44759.63;;;-143.47;42.83
35121;BME280;21297;52.008;4.576;2024-03-25T13:09:04;44759.63;;;-143.47;43.43
35121;BME280;21297;52.008;4.576;2024-03-25T13:11:50;44767.47;;;-143.47;42.09
35121;BME280;21297;52.008;4.576;2024-03-25T13:14:35;44753.72;;;-143.47;42.05
35121;BME280;21297;52.008;4.576;2024-03-25T13:17:21;44738.03;;;-143.47;42.14
35121;BME280;21297;52.008;4.576;2024-03-25T13:20:07;44741.94;;;-143.47;40.75
35121;BME280;21297;52.008;4.576;2024-03-25T13:22:53;44749.81;;;-143.47;41.58
35121;BME280;21297;52.008;4.576;2024-03-25T13:25:42;44734.09;;;-143.47;39.51
35121;BME280;21297;52.008;4.576;2024-03-25T13:28:28;44745.88;;;-143.47;38.26
35121;BME280;21297;52.008;4.576;2024-03-25T13:31:13;44765.53;;;-143.47;42.04
35121;BME280;21297;52.008;4.576;2024-03-25T13:33:59;44755.69;;;-143.47;41.06
35121;BME280;21297;52.008;4.576;2024-03-25T13:36:44;44741.94;;;-143.47;40.70
35121;BME280;21297;52.008;4.576;2024-03-25T13:39:30;44738.03;;;-143.47;41.19
35121;BME280;21297;52.008;4.576;2024-03-25T13:42:16;44730.16;;;-143.47;38.94
35121;BME280;21297;52.008;4.576;2024-03-25T13:45:01;44712.47;;;-143.47;39.98
35121;BME280;21297;52.008;4.576;2024-03-25T13:47:47;44747.84;;;-143.47;40.56
35121;BME280;21297;52.008;4.576;2024-03-25T13:50:33;44712.47;;;-143.47;40.07
35121;BME280;21297;52.008;4.576;2024-03-25T13:53:18;44747.84;;;-143.47;38.58
35121;BME280;21297;52.008;4.576;2024-03-25T13:56:05;44726.22;;;-143.47;38.24
35121;BME280;21297;52.008;4.576;2024-03-25T13:58:51;44761.59;;;-143.47;37.54
35121;BME280;21297;52.008;4.576;2024-03-25T14:01:37;44732.13;;;-143.47;37.80
35121;BME280;21297;52.008;4.576;2024-03-25T14:04:22;44745.88;;;-143.47;38.25
35121;BME280;21297;52.008;4.576;2024-03-25T14:07:08;44761.59;;;-143.47;38.14
35121;BME280;21297;52.008;4.576;2024-03-25T14:09:53;44726.22;;;-143.47;38.96
35121;BME280;21297;52.008;4.576;2024-03-25T14:12:39;44706.59;;;-143.47;39.60
35121;BME280;21297;52.008;4.576;2024-03-25T14:15:24;44739.97;;;-143.47;39.40